LYNI

Nis Airport

Nis, Serbia
TAF LYNI 231700Z 2318/2418 09005KT CAVOK TX29/2414Z TN09/2403Z TEMPO 2412/2418 28015KT 5000 TSRA SCT030CB SCT040
Issued Valid From Valid To
Apr-23 @ 17:00 UTC
(6 hours ago)
Apr-23 @ 18:00 UTC
(5 hours ago)
Apr-24 @ 18:00 UTC
(in 19 hours)
Apr-23 @ 18:00 to Apr-24 @ 18:00
TAF LYNI 231700Z 2318/2418 09005KT CAVOK TX29/2414Z TN09/2403Z
Wind Visibility Clouds
90° at 5 knots 10,000+ meters
  • No significant clouds
Temporary Apr-24 @ 12:00 to Apr-24 @ 18:00
TEMPO 2412/2418 28015KT 5000 TSRA SCT030CB SCT040
Wind Visibility Clouds Conditions
280° at 15 knots 5,005 meters
  • Scattered at 3,000' AGL
  • Scattered at 4,000' AGL
  • Thunderstorm
  • Rain
TAF LYNI 231700Z 2318/2418 09005KT CAVOK TX29/2414Z TN09/2403Z TEMPO 2412/2418 28015KT 5000 TSRA SCT030CB SCT040
Issued Apr-23 @ 17:00 UTC
(6 hours ago)
Valid From Apr-23 @ 18:00 UTC
(5 hours ago)
Valid To Apr-24 @ 18:00 UTC
(in 19 hours)
Apr-23 @ 18:00 - Apr-24 @ 18:00
Wind Visibility
90° at 5 knots 10,000+ meters
Clouds
  • No significant clouds
Temporary Apr-24 @ 12:00 - Apr-24 @ 18:00
Wind Visibility
280° at 15 knots 5,005 meters
Clouds
  • Scattered at 3,000' AGL
  • Scattered at 4,000' AGL
Conditions
  • Thunderstorm
  • Rain